WXM80 ListenWXM80 Stop

You find our weather info also at:

UK Metoffice

WeatherCloud

Weather Underground

Northeastern Weather Network

AWEKAS

Citizen Weather Observer Program (CWOP)

HAMweather, WeatherForYou, PWS Weather


Weather Underground History page Text

Daily Summary for February 2, 2017 Units:  Both    English   Metric
« Previous Day
Next Day »
Daily Weekly Monthly Yearly Custom
  High: Low: Average:
Temperature: 44.5 °F /  6.9 °C 31.2 °F /  -0.4 °C 37 °F /  2.8 °C
Dew Point: 31.5 °F /  -0.3 °C 19.0 °F /  -7.2 °C 25.5 °F /  -3.6 °C
Humidity: 81 % 41 % 64 %
Wind Speed: 10.2 mph /  16.4 km/h - 3.5 mph /  5.6 km/h
Wind Gust: 17.3 mph /  27.8 km/h - -
Wind:- - West
Pressure: 30.16 in /  1021.2 hPa 29.98 in /  1015.1 hPa -
Precipitation: 0.00 in /  0 mm    
Historical Graphs
 
 
Tabular Data for February 2, 2017
Time Temperature Dew Point Pressure Wind Wind Speed Wind Gust Humidity Rainfall Rate (Hourly)
00:01 37.7 °F /  3.2 °C 31.5 °F /  -0.3 °C 30.00 in /  1015.8 hPa WSW 2.0 mph /  3.2 km/h 2.3 mph /  3.7 km/h 78 % 0.00 in /  0 mm
00:06 37.5 °F /  3.1 °C 31.3 °F /  -0.4 °C 30.00 in /  1015.8 hPa West 2.3 mph /  3.7 km/h 8.1 mph /  13 km/h 78 % 0.00 in /  0 mm
00:11 37.4 °F /  3 °C 31.2 °F /  -0.4 °C 30.00 in /  1015.8 hPa WNW 1.9 mph /  3.1 km/h 5.8 mph /  9.3 km/h 78 % 0.00 in /  0 mm
00:16 37.3 °F /  2.9 °C 31.1 °F /  -0.5 °C 30.00 in /  1015.8 hPa WSW 3.7 mph /  6 km/h 5.8 mph /  9.3 km/h 78 % 0.00 in /  0 mm
00:21 37.1 °F /  2.8 °C 31.2 °F /  -0.4 °C 30.00 in /  1015.8 hPa West 2.9 mph /  4.7 km/h 5.0 mph /  8 km/h 79 % 0.00 in /  0 mm
00:26 37.0 °F /  2.8 °C 31.1 °F /  -0.5 °C 30.00 in /  1015.8 hPa West 2.3 mph /  3.7 km/h 3.5 mph /  5.6 km/h 79 % 0.00 in /  0 mm
00:31 36.8 °F /  2.7 °C 30.9 °F /  -0.6 °C 30.00 in /  1015.8 hPa West 3.9 mph /  6.3 km/h 8.1 mph /  13 km/h 79 % 0.00 in /  0 mm
00:36 36.8 °F /  2.7 °C 30.9 °F /  -0.6 °C 30.01 in /  1016.1 hPa WNW 3.4 mph /  5.5 km/h 6.9 mph /  11.1 km/h 79 % 0.00 in /  0 mm
00:41 36.7 °F /  2.6 °C 30.8 °F /  -0.7 °C 30.01 in /  1016.1 hPa SW 6.1 mph /  9.8 km/h 6.9 mph /  11.1 km/h 79 % 0.00 in /  0 mm
00:46 36.7 °F /  2.6 °C 30.5 °F /  -0.8 °C 30.01 in /  1016.1 hPa West 2.1 mph /  3.4 km/h 5.0 mph /  8 km/h 78 % 0.00 in /  0 mm
00:51 36.6 °F /  2.6 °C 30.7 °F /  -0.7 °C 30.01 in /  1016.1 hPa West 0.4 mph /  0.6 km/h 1.2 mph /  1.9 km/h 79 % 0.00 in /  0 mm
00:56 36.6 °F /  2.6 °C 30.7 °F /  -0.7 °C 30.00 in /  1015.8 hPa West 0.9 mph /  1.4 km/h 3.5 mph /  5.6 km/h 79 % 0.00 in /  0 mm
01:01 36.6 °F /  2.6 °C 30.7 °F /  -0.7 °C 30.00 in /  1015.8 hPa WNW 1.6 mph /  2.6 km/h 3.5 mph /  5.6 km/h 79 % 0.00 in /  0 mm
01:06 36.5 °F /  2.5 °C 30.6 °F /  -0.8 °C 30.00 in /  1015.8 hPa West 3.4 mph /  5.5 km/h 3.5 mph /  5.6 km/h 79 % 0.00 in /  0 mm
01:11 36.4 °F /  2.4 °C 30.5 °F /  -0.8 °C 30.00 in /  1015.8 hPa WNW 2.9 mph /  4.7 km/h 5.8 mph /  9.3 km/h 79 % 0.00 in /  0 mm
01:17 36.3 °F /  2.4 °C 30.1 °F /  -1.1 °C 30.00 in /  1015.8 hPa West 1.8 mph /  2.9 km/h 4.6 mph /  7.4 km/h 78 % 0.00 in /  0 mm
01:22 36.2 °F /  2.3 °C 30.0 °F /  -1.1 °C 30.00 in /  1015.8 hPa WNW 2.4 mph /  3.9 km/h 5.8 mph /  9.3 km/h 78 % 0.00 in /  0 mm
01:27 36.1 °F /  2.3 °C 29.9 °F /  -1.2 °C 30.00 in /  1015.8 hPa West 2.9 mph /  4.7 km/h 6.9 mph /  11.1 km/h 78 % 0.00 in /  0 mm
01:32 36.0 °F /  2.2 °C 29.8 °F /  -1.2 °C 30.00 in /  1015.8 hPa WNW 2.5 mph /  4 km/h 4.6 mph /  7.4 km/h 78 % 0.00 in /  0 mm
01:33 36.0 °F /  2.2 °C 29.8 °F /  -1.2 °C 30.00 in /  1015.8 hPa WNW 1.0 mph /  1.6 km/h 5.0 mph /  8 km/h 78 % 0.00 in /  0 mm
01:38 35.9 °F /  2.2 °C 29.7 °F /  -1.3 °C 30.00 in /  1015.8 hPa WNW 2.0 mph /  3.2 km/h 7.0 mph /  11.3 km/h 78 % 0.00 in /  0 mm
01:43 35.9 °F /  2.2 °C 29.7 °F /  -1.3 °C 30.00 in /  1015.8 hPa WNW 3.0 mph /  4.8 km/h 7.0 mph /  11.3 km/h 78 % 0.00 in /  0 mm
01:48 35.8 °F /  2.1 °C 29.6 °F /  -1.3 °C 30.00 in /  1015.8 hPa WNW 1.0 mph /  1.6 km/h 4.0 mph /  6.4 km/h 78 % 0.00 in /  0 mm
01:53 35.8 °F /  2.1 °C 29.6 °F /  -1.3 °C 30.01 in /  1016.1 hPa WNW 1.0 mph /  1.6 km/h 7.0 mph /  11.3 km/h 78 % 0.00 in /  0 mm
01:59 35.7 °F /  2.1 °C 29.5 °F /  -1.4 °C 30.01 in /  1016.1 hPa WSW 1.6 mph /  2.6 km/h 4.6 mph /  7.4 km/h 78 % 0.00 in /  0 mm
02:04 35.6 °F /  2 °C 29.4 °F /  -1.4 °C 30.01 in /  1016.1 hPa WSW 0.8 mph /  1.3 km/h 3.5 mph /  5.6 km/h 78 % 0.00 in /  0 mm
02:09 35.5 °F /  1.9 °C 29.0 °F /  -1.7 °C 30.00 in /  1015.8 hPa WSW 1.5 mph /  2.4 km/h 3.5 mph /  5.6 km/h 77 % 0.00 in /  0 mm
02:14 35.4 °F /  1.9 °C 28.9 °F /  -1.7 °C 30.01 in /  1016.1 hPa WSW 2.5 mph /  4 km/h 3.5 mph /  5.6 km/h 77 % 0.00 in /  0 mm
02:19 35.3 °F /  1.8 °C 28.5 °F /  -1.9 °C 30.01 in /  1016.1 hPa WSW 1.8 mph /  2.9 km/h 3.5 mph /  5.6 km/h 76 % 0.00 in /  0 mm
02:24 35.2 °F /  1.8 °C 28.1 °F /  -2.2 °C 30.01 in /  1016.1 hPa WNW 0.9 mph /  1.4 km/h 3.5 mph /  5.6 km/h 75 % 0.00 in /  0 mm
02:29 35.2 °F /  1.8 °C 28.1 °F /  -2.2 °C 30.01 in /  1016.1 hPa West 0.8 mph /  1.3 km/h 3.5 mph /  5.6 km/h 75 % 0.00 in /  0 mm
02:34 35.1 °F /  1.7 °C 28.0 °F /  -2.2 °C 30.02 in /  1016.5 hPa West 2.2 mph /  3.5 km/h 3.5 mph /  5.6 km/h 75 % 0.00 in /  0 mm
02:39 35.1 °F /  1.7 °C 28.0 °F /  -2.2 °C 30.02 in /  1016.5 hPa WNW 2.0 mph /  3.2 km/h 5.0 mph /  8 km/h 75 % 0.00 in /  0 mm
02:44 35.2 °F /  1.8 °C 28.1 °F /  -2.2 °C 30.02 in /  1016.5 hPa WSW 2.3 mph /  3.7 km/h 4.6 mph /  7.4 km/h 75 % 0.00 in /  0 mm
02:49 35.2 °F /  1.8 °C 28.1 °F /  -2.2 °C 30.02 in /  1016.5 hPa WSW 1.5 mph /  2.4 km/h 4.0 mph /  6.4 km/h 75 % 0.00 in /  0 mm
02:54 35.2 °F /  1.8 °C 27.7 °F /  -2.4 °C 30.02 in /  1016.5 hPa WSW 2.3 mph /  3.7 km/h 3.5 mph /  5.6 km/h 74 % 0.00 in /  0 mm
02:59 35.2 °F /  1.8 °C 27.7 °F /  -2.4 °C 30.02 in /  1016.5 hPa WSW 0.4 mph /  0.6 km/h 2.3 mph /  3.7 km/h 74 % 0.00 in /  0 mm
03:04 35.2 °F /  1.8 °C 28.1 °F /  -2.2 °C 30.02 in /  1016.5 hPa Calm   1.2 mph /  1.9 km/h 75 % 0.00 in /  0 mm
03:09 35.2 °F /  1.8 °C 28.1 °F /  -2.2 °C 30.02 in /  1016.5 hPa WSW 2.1 mph /  3.4 km/h 2.3 mph /  3.7 km/h 75 % 0.00 in /  0 mm
03:14 35.1 °F /  1.7 °C 28.0 °F /  -2.2 °C 30.02 in /  1016.5 hPa WSW 0.1 mph /  0.2 km/h 1.2 mph /  1.9 km/h 75 % 0.00 in /  0 mm
03:19 35.0 °F /  1.7 °C 27.9 °F /  -2.3 °C 30.03 in /  1016.8 hPa WSW 0.2 mph /  0.3 km/h 1.2 mph /  1.9 km/h 75 % 0.00 in /  0 mm
03:24 34.9 °F /  1.6 °C 27.8 °F /  -2.3 °C 30.03 in /  1016.8 hPa WSW 1.5 mph /  2.4 km/h 2.3 mph /  3.7 km/h 75 % 0.00 in /  0 mm
03:29 34.7 °F /  1.5 °C 27.6 °F /  -2.4 °C 30.03 in /  1016.8 hPa WSW 0.6 mph /  1 km/h 2.0 mph /  3.2 km/h 75 % 0.00 in /  0 mm
03:34 34.5 °F /  1.4 °C 27.4 °F /  -2.6 °C 30.03 in /  1016.8 hPa WSW 0.1 mph /  0.2 km/h 2.3 mph /  3.7 km/h 75 % 0.00 in /  0 mm
03:39 34.3 °F /  1.3 °C 27.2 °F /  -2.7 °C 30.03 in /  1016.8 hPa WSW 0.9 mph /  1.4 km/h 2.3 mph /  3.7 km/h 75 % 0.00 in /  0 mm
03:44 34.1 °F /  1.2 °C 27.0 °F /  -2.8 °C 30.03 in /  1016.8 hPa WSW 1.0 mph /  1.6 km/h 2.3 mph /  3.7 km/h 75 % 0.00 in /  0 mm
03:49 34.0 °F /  1.1 °C 26.9 °F /  -2.8 °C 30.02 in /  1016.5 hPa Calm     75 % 0.00 in /  0 mm
03:54 33.7 °F /  0.9 °C 26.6 °F /  -3 °C 30.02 in /  1016.5 hPa WSW 0.5 mph /  0.8 km/h 1.2 mph /  1.9 km/h 75 % 0.00 in /  0 mm
03:59 33.5 °F /  0.8 °C 26.4 °F /  -3.1 °C 30.02 in /  1016.5 hPa Calm     75 % 0.00 in /  0 mm
04:05 33.3 °F /  0.7 °C 26.5 °F /  -3.1 °C 30.02 in /  1016.5 hPa WSW 0.9 mph /  1.4 km/h 2.3 mph /  3.7 km/h 76 % 0.00 in /  0 mm
04:10 33.1 °F /  0.6 °C 26.7 °F /  -2.9 °C 30.02 in /  1016.5 hPa Calm     77 % 0.00 in /  0 mm
04:15 32.8 °F /  0.4 °C 26.4 °F /  -3.1 °C 30.02 in /  1016.5 hPa WSW 0.9 mph /  1.4 km/h 2.3 mph /  3.7 km/h 77 % 0.00 in /  0 mm
04:20 32.6 °F /  0.3 °C 26.2 °F /  -3.2 °C 30.03 in /  1016.8 hPa WSW 0.3 mph /  0.5 km/h 2.3 mph /  3.7 km/h 77 % 0.00 in /  0 mm
04:25 32.4 °F /  0.2 °C 26.0 °F /  -3.3 °C 30.03 in /  1016.8 hPa Calm   1.2 mph /  1.9 km/h 77 % 0.00 in /  0 mm
04:30 32.2 °F /  0.1 °C 26.1 °F /  -3.3 °C 30.03 in /  1016.8 hPa Calm     78 % 0.00 in /  0 mm
04:35 32.1 °F /  0.1 °C 26.0 °F /  -3.3 °C 30.03 in /  1016.8 hPa Calm     78 % 0.00 in /  0 mm
04:40 31.9 °F /  -0.1 °C 25.8 °F /  -3.4 °C 30.03 in /  1016.8 hPa Calm     78 % 0.00 in /  0 mm
04:45 31.7 °F /  -0.2 °C 25.6 °F /  -3.6 °C 30.02 in /  1016.5 hPa Calm     78 % 0.00 in /  0 mm
04:50 31.6 °F /  -0.2 °C 25.5 °F /  -3.6 °C 30.02 in /  1016.5 hPa Calm     78 % 0.00 in /  0 mm
04:55 31.5 °F /  -0.3 °C 25.7 °F /  -3.5 °C 30.02 in /  1016.5 hPa Calm     79 % 0.00 in /  0 mm
05:00 31.4 °F /  -0.3 °C 25.6 °F /  -3.6 °C 30.02 in /  1016.5 hPa Calm     79 % 0.00 in /  0 mm
05:05 31.3 °F /  -0.4 °C 25.5 °F /  -3.6 °C 30.02 in /  1016.5 hPa Calm     79 % 0.00 in /  0 mm
05:10 31.3 °F /  -0.4 °C 25.8 °F /  -3.4 °C 30.02 in /  1016.5 hPa Calm   1.0 mph /  1.6 km/h 80 % 0.00 in /  0 mm
05:15 31.3 °F /  -0.4 °C 25.8 °F /  -3.4 °C 30.02 in /  1016.5 hPa Calm     80 % 0.00 in /  0 mm
05:20 31.3 °F /  -0.4 °C 25.8 °F /  -3.4 °C 30.02 in /  1016.5 hPa Calm     80 % 0.00 in /  0 mm
05:25 31.4 °F /  -0.3 °C 26.2 °F /  -3.2 °C 30.01 in /  1016.1 hPa Calm   1.0 mph /  1.6 km/h 81 % 0.00 in /  0 mm
05:30 31.4 °F /  -0.3 °C 26.2 °F /  -3.2 °C 30.00 in /  1015.8 hPa Calm     81 % 0.00 in /  0 mm
05:35 31.4 °F /  -0.3 °C 26.2 °F /  -3.2 °C 30.00 in /  1015.8 hPa Calm     81 % 0.00 in /  0 mm
05:40 31.4 °F /  -0.3 °C 26.2 °F /  -3.2 °C 30.01 in /  1016.1 hPa WSW 0.3 mph /  0.5 km/h 1.2 mph /  1.9 km/h 81 % 0.00 in /  0 mm
05:45 31.4 °F /  -0.3 °C 26.2 °F /  -3.2 °C 30.02 in /  1016.5 hPa WSW 1.9 mph /  3.1 km/h 3.5 mph /  5.6 km/h 81 % 0.00 in /  0 mm
05:50 31.3 °F /  -0.4 °C 26.1 °F /  -3.3 °C 30.02 in /  1016.5 hPa SW 1.5 mph /  2.4 km/h 2.0 mph /  3.2 km/h 81 % 0.00 in /  0 mm
05:55 31.3 °F /  -0.4 °C 25.8 °F /  -3.4 °C 30.02 in /  1016.5 hPa SSW 2.3 mph /  3.7 km/h 3.5 mph /  5.6 km/h 80 % 0.00 in /  0 mm
06:00 31.3 °F /  -0.4 °C 25.8 °F /  -3.4 °C 30.02 in /  1016.5 hPa SSW 4.0 mph /  6.4 km/h 4.0 mph /  6.4 km/h 80 % 0.00 in /  0 mm
06:05 31.3 °F /  -0.4 °C 25.8 °F /  -3.4 °C 30.02 in /  1016.5 hPa SSW 2.4 mph /  3.9 km/h 3.5 mph /  5.6 km/h 80 % 0.00 in /  0 mm
06:10 31.4 °F /  -0.3 °C 25.6 °F /  -3.6 °C 30.01 in /  1016.1 hPa SW 0.9 mph /  1.4 km/h 1.2 mph /  1.9 km/h 79 % 0.00 in /  0 mm
06:16 31.4 °F /  -0.3 °C 25.6 °F /  -3.6 °C 30.01 in /  1016.1 hPa SW 0.2 mph /  0.3 km/h 2.3 mph /  3.7 km/h 79 % 0.00 in /  0 mm
06:21 31.4 °F /  -0.3 °C 25.6 °F /  -3.6 °C 30.02 in /  1016.5 hPa SSW 0.4 mph /  0.6 km/h 2.3 mph /  3.7 km/h 79 % 0.00 in /  0 mm
06:26 31.4 °F /  -0.3 °C 25.3 °F /  -3.7 °C 30.02 in /  1016.5 hPa SW 2.2 mph /  3.5 km/h 3.5 mph /  5.6 km/h 78 % 0.00 in /  0 mm
06:31 31.3 °F /  -0.4 °C 25.2 °F /  -3.8 °C 30.02 in /  1016.5 hPa SW 1.2 mph /  1.9 km/h 4.0 mph /  6.4 km/h 78 % 0.00 in /  0 mm
06:36 31.3 °F /  -0.4 °C 25.2 °F /  -3.8 °C 30.02 in /  1016.5 hPa SW 0.1 mph /  0.2 km/h 1.2 mph /  1.9 km/h 78 % 0.00 in /  0 mm
06:41 31.2 °F /  -0.4 °C 25.1 °F /  -3.8 °C 30.02 in /  1016.5 hPa SW 0.6 mph /  1 km/h 2.3 mph /  3.7 km/h 78 % 0.00 in /  0 mm
06:46 31.2 °F /  -0.4 °C 25.1 °F /  -3.8 °C 30.03 in /  1016.8 hPa Calm   1.2 mph /  1.9 km/h 78 % 0.00 in /  0 mm
06:51 31.2 °F /  -0.4 °C 25.1 °F /  -3.8 °C 30.03 in /  1016.8 hPa SW 1.4 mph /  2.3 km/h 3.5 mph /  5.6 km/h 78 % 0.00 in /  0 mm
06:56 31.3 °F /  -0.4 °C 25.2 °F /  -3.8 °C 30.02 in /  1016.5 hPa SW 0.7 mph /  1.1 km/h 2.3 mph /  3.7 km/h 78 % 0.00 in /  0 mm
07:01 31.3 °F /  -0.4 °C 25.2 °F /  -3.8 °C 30.02 in /  1016.5 hPa SW 0.6 mph /  1 km/h 2.0 mph /  3.2 km/h 78 % 0.00 in /  0 mm
07:06 31.5 °F /  -0.3 °C 25.4 °F /  -3.7 °C 30.02 in /  1016.5 hPa Calm     78 % 0.00 in /  0 mm
07:11 31.6 °F /  -0.2 °C 25.2 °F /  -3.8 °C 30.02 in /  1016.5 hPa SW 0.3 mph /  0.5 km/h 3.5 mph /  5.6 km/h 77 % 0.00 in /  0 mm
07:16 31.7 °F /  -0.2 °C 25.3 °F /  -3.7 °C 30.03 in /  1016.8 hPa SW 0.1 mph /  0.2 km/h 1.2 mph /  1.9 km/h 77 % 0.00 in /  0 mm
07:21 31.9 °F /  -0.1 °C 25.5 °F /  -3.6 °C 30.03 in /  1016.8 hPa SW 0.1 mph /  0.2 km/h 2.3 mph /  3.7 km/h 77 % 0.00 in /  0 mm
07:26 32.1 °F /  0.1 °C 25.7 °F /  -3.5 °C 30.03 in /  1016.8 hPa SW 1.0 mph /  1.6 km/h 1.2 mph /  1.9 km/h 77 % 0.00 in /  0 mm
07:31 32.3 °F /  0.2 °C 25.9 °F /  -3.4 °C 30.03 in /  1016.8 hPa SW 1.3 mph /  2.1 km/h 4.0 mph /  6.4 km/h 77 % 0.00 in /  0 mm
07:36 32.5 °F /  0.3 °C 26.1 °F /  -3.3 °C 30.04 in /  1017.2 hPa SW 0.2 mph /  0.3 km/h 3.5 mph /  5.6 km/h 77 % 0.00 in /  0 mm
07:41 32.8 °F /  0.4 °C 26.4 °F /  -3.1 °C 30.03 in /  1016.8 hPa SW 2.2 mph /  3.5 km/h 4.6 mph /  7.4 km/h 77 % 0.00 in /  0 mm
07:46 33.0 °F /  0.6 °C 26.6 °F /  -3 °C 30.04 in /  1017.2 hPa WSW 1.4 mph /  2.3 km/h 3.5 mph /  5.6 km/h 77 % 0.00 in /  0 mm
07:51 33.3 °F /  0.7 °C 26.5 °F /  -3.1 °C 30.03 in /  1016.8 hPa WSW 2.5 mph /  4 km/h 3.5 mph /  5.6 km/h 76 % 0.00 in /  0 mm
07:56 33.6 °F /  0.9 °C 26.8 °F /  -2.9 °C 30.03 in /  1016.8 hPa WSW 1.2 mph /  1.9 km/h 5.8 mph /  9.3 km/h 76 % 0.00 in /  0 mm
08:01 33.8 °F /  1 °C 27.0 °F /  -2.8 °C 30.03 in /  1016.8 hPa WSW 0.4 mph /  0.6 km/h 2.3 mph /  3.7 km/h 76 % 0.00 in /  0 mm
08:06 34.0 °F /  1.1 °C 27.2 °F /  -2.7 °C 30.04 in /  1017.2 hPa SW 1.3 mph /  2.1 km/h 2.3 mph /  3.7 km/h 76 % 0.00 in /  0 mm
08:11 34.2 °F /  1.2 °C 27.4 °F /  -2.6 °C 30.04 in /  1017.2 hPa SW 0.8 mph /  1.3 km/h 3.5 mph /  5.6 km/h 76 % 0.00 in /  0 mm
08:17 34.4 °F /  1.3 °C 27.3 °F /  -2.6 °C 30.04 in /  1017.2 hPa SW 1.0 mph /  1.6 km/h 2.3 mph /  3.7 km/h 75 % 0.00 in /  0 mm
08:22 34.5 °F /  1.4 °C 27.4 °F /  -2.6 °C 30.04 in /  1017.2 hPa SW 1.0 mph /  1.6 km/h 3.5 mph /  5.6 km/h 75 % 0.00 in /  0 mm
08:27 34.7 °F /  1.5 °C 27.6 °F /  -2.4 °C 30.04 in /  1017.2 hPa SW 1.8 mph /  2.9 km/h 3.5 mph /  5.6 km/h 75 % 0.00 in /  0 mm
08:32 34.8 °F /  1.6 °C 27.7 °F /  -2.4 °C 30.03 in /  1016.8 hPa SW 0.6 mph /  1 km/h 1.2 mph /  1.9 km/h 75 % 0.00 in /  0 mm
08:37 34.9 °F /  1.6 °C 27.8 °F /  -2.3 °C 30.03 in /  1016.8 hPa SSW 0.7 mph /  1.1 km/h 2.3 mph /  3.7 km/h 75 % 0.00 in /  0 mm
08:42 35.2 °F /  1.8 °C 28.1 °F /  -2.2 °C 30.03 in /  1016.8 hPa SSW 3.5 mph /  5.6 km/h 5.0 mph /  8 km/h 75 % 0.00 in /  0 mm
08:47 35.5 °F /  1.9 °C 28.4 °F /  -2 °C 30.03 in /  1016.8 hPa SW 3.7 mph /  6 km/h 7.0 mph /  11.3 km/h 75 % 0.00 in /  0 mm
08:52 35.8 °F /  2.1 °C 28.6 °F /  -1.9 °C 30.03 in /  1016.8 hPa SW 5.8 mph /  9.3 km/h 9.2 mph /  14.8 km/h 75 % 0.00 in /  0 mm
08:57 36.1 °F /  2.3 °C 28.9 °F /  -1.7 °C 30.03 in /  1016.8 hPa SW 3.4 mph /  5.5 km/h 5.8 mph /  9.3 km/h 75 % 0.00 in /  0 mm
09:02 36.5 °F /  2.5 °C 29.3 °F /  -1.5 °C 30.04 in /  1017.2 hPa SW 3.3 mph /  5.3 km/h 5.8 mph /  9.3 km/h 75 % 0.00 in /  0 mm
09:07 36.8 °F /  2.7 °C 29.6 °F /  -1.3 °C 30.04 in /  1017.2 hPa SW 3.5 mph /  5.6 km/h 7.0 mph /  11.3 km/h 75 % 0.00 in /  0 mm
09:12 37.1 °F /  2.8 °C 29.6 °F /  -1.3 °C 30.04 in /  1017.2 hPa South 4.6 mph /  7.4 km/h 7.0 mph /  11.3 km/h 74 % 0.00 in /  0 mm
09:17 37.4 °F /  3 °C 29.5 °F /  -1.4 °C 30.04 in /  1017.2 hPa SW 4.4 mph /  7.1 km/h 8.0 mph /  12.9 km/h 73 % 0.00 in /  0 mm
09:22 37.7 °F /  3.2 °C 29.8 °F /  -1.2 °C 30.04 in /  1017.2 hPa WSW 2.3 mph /  3.7 km/h 4.6 mph /  7.4 km/h 73 % 0.00 in /  0 mm
09:27 37.9 °F /  3.3 °C 29.7 °F /  -1.3 °C 30.04 in /  1017.2 hPa South 6.5 mph /  10.5 km/h 11.5 mph /  18.5 km/h 72 % 0.00 in /  0 mm
09:32 38.3 °F /  3.5 °C 29.7 °F /  -1.3 °C 30.04 in /  1017.2 hPa South 5.6 mph /  9 km/h 16.1 mph /  25.9 km/h 71 % 0.00 in /  0 mm
09:37 38.6 °F /  3.7 °C 29.7 °F /  -1.3 °C 30.04 in /  1017.2 hPa West 7.1 mph /  11.4 km/h 11.5 mph /  18.5 km/h 70 % 0.00 in /  0 mm
09:42 38.8 °F /  3.8 °C 29.5 °F /  -1.4 °C 30.04 in /  1017.2 hPa SW 4.6 mph /  7.4 km/h 8.1 mph /  13 km/h 69 % 0.00 in /  0 mm
09:47 38.9 °F /  3.8 °C 29.6 °F /  -1.3 °C 30.04 in /  1017.2 hPa WSW 5.6 mph /  9 km/h 6.9 mph /  11.1 km/h 69 % 0.00 in /  0 mm
09:52 39.0 °F /  3.9 °C 29.3 °F /  -1.5 °C 30.05 in /  1017.5 hPa SW 4.9 mph /  7.9 km/h 9.2 mph /  14.8 km/h 68 % 0.00 in /  0 mm
09:57 39.1 °F /  3.9 °C 29.1 °F /  -1.6 °C 30.04 in /  1017.2 hPa WSW 7.3 mph /  11.7 km/h 9.2 mph /  14.8 km/h 67 % 0.00 in /  0 mm
10:02 39.2 °F /  4 °C 28.8 °F /  -1.8 °C 30.04 in /  1017.2 hPa WSW 7.6 mph /  12.2 km/h 10.4 mph /  16.7 km/h 66 % 0.00 in /  0 mm
10:07 39.3 °F /  4.1 °C 28.9 °F /  -1.7 °C 30.04 in /  1017.2 hPa NW 4.8 mph /  7.7 km/h 12.7 mph /  20.4 km/h 66 % 0.00 in /  0 mm
10:13 39.2 °F /  4 °C 28.8 °F /  -1.8 °C 30.05 in /  1017.5 hPa WSW 4.1 mph /  6.6 km/h 8.1 mph /  13 km/h 66 % 0.00 in /  0 mm
10:18 39.3 °F /  4.1 °C 28.5 °F /  -1.9 °C 30.05 in /  1017.5 hPa WNW 6.7 mph /  10.8 km/h 11.5 mph /  18.5 km/h 65 % 0.00 in /  0 mm
10:23 39.5 °F /  4.2 °C 29.1 °F /  -1.6 °C 30.04 in /  1017.2 hPa WNW 4.3 mph /  6.9 km/h 11.5 mph /  18.5 km/h 66 % 0.00 in /  0 mm
10:28 39.9 °F /  4.4 °C 29.1 °F /  -1.6 °C 30.04 in /  1017.2 hPa West 6.9 mph /  11.1 km/h 11.5 mph /  18.5 km/h 65 % 0.00 in /  0 mm
10:33 40.3 °F /  4.6 °C 29.1 °F /  -1.6 °C 30.04 in /  1017.2 hPa WSW 5.6 mph /  9 km/h 10.4 mph /  16.7 km/h 64 % 0.00 in /  0 mm
10:38 40.6 °F /  4.8 °C 29.4 °F /  -1.4 °C 30.04 in /  1017.2 hPa WNW 5.0 mph /  8 km/h 10.0 mph /  16.1 km/h 64 % 0.00 in /  0 mm
10:43 40.8 °F /  4.9 °C 28.8 °F /  -1.8 °C 30.04 in /  1017.2 hPa NW 4.3 mph /  6.9 km/h 8.0 mph /  12.9 km/h 62 % 0.00 in /  0 mm
10:48 41.2 °F /  5.1 °C 28.8 °F /  -1.8 °C 30.04 in /  1017.2 hPa West 5.9 mph /  9.5 km/h 9.2 mph /  14.8 km/h 61 % 0.00 in /  0 mm
10:53 41.6 °F /  5.3 °C 28.7 °F /  -1.8 °C 30.03 in /  1016.8 hPa West 8.0 mph /  12.9 km/h 13.8 mph /  22.2 km/h 60 % 0.00 in /  0 mm
10:58 41.9 °F /  5.5 °C 28.6 °F /  -1.9 °C 30.03 in /  1016.8 hPa WSW 6.7 mph /  10.8 km/h 9.2 mph /  14.8 km/h 59 % 0.00 in /  0 mm
11:03 42.0 °F /  5.6 °C 28.3 °F /  -2.1 °C 30.03 in /  1016.8 hPa WSW 5.8 mph /  9.3 km/h 9.0 mph /  14.5 km/h 58 % 0.00 in /  0 mm
11:08 42.1 °F /  5.6 °C 27.9 °F /  -2.3 °C 30.03 in /  1016.8 hPa WNW 5.8 mph /  9.3 km/h 10.0 mph /  16.1 km/h 57 % 0.00 in /  0 mm
11:13 42.1 °F /  5.6 °C 27.1 °F /  -2.7 °C 30.03 in /  1016.8 hPa SW 6.2 mph /  10 km/h 11.5 mph /  18.5 km/h 55 % 0.00 in /  0 mm
11:18 42.2 °F /  5.7 °C 26.7 °F /  -2.9 °C 30.03 in /  1016.8 hPa WNW 6.1 mph /  9.8 km/h 11.0 mph /  17.7 km/h 54 % 0.00 in /  0 mm
11:23 42.1 °F /  5.6 °C 26.6 °F /  -3 °C 30.03 in /  1016.8 hPa West 6.6 mph /  10.6 km/h 9.2 mph /  14.8 km/h 54 % 0.00 in /  0 mm
11:28 42.1 °F /  5.6 °C 26.6 °F /  -3 °C 30.02 in /  1016.5 hPa WNW 6.2 mph /  10 km/h 10.4 mph /  16.7 km/h 54 % 0.00 in /  0 mm
11:33 42.1 °F /  5.6 °C 26.2 °F /  -3.2 °C 30.02 in /  1016.5 hPa WNW 5.0 mph /  8 km/h 10.0 mph /  16.1 km/h 53 % 0.00 in /  0 mm
11:38 42.1 °F /  5.6 °C 26.2 °F /  -3.2 °C 30.02 in /  1016.5 hPa West 2.0 mph /  3.2 km/h 10.0 mph /  16.1 km/h 53 % 0.00 in /  0 mm
11:43 42.1 °F /  5.6 °C 27.1 °F /  -2.7 °C 30.01 in /  1016.1 hPa West 3.0 mph /  4.8 km/h 6.0 mph /  9.7 km/h 55 % 0.00 in /  0 mm
11:48 42.2 °F /  5.7 °C 27.6 °F /  -2.4 °C 30.01 in /  1016.1 hPa WSW 5.0 mph /  8 km/h 9.0 mph /  14.5 km/h 56 % 0.00 in /  0 mm
11:53 42.3 °F /  5.7 °C 27.3 °F /  -2.6 °C 30.00 in /  1015.8 hPa SSW 7.2 mph /  11.6 km/h 10.4 mph /  16.7 km/h 55 % 0.00 in /  0 mm
11:58 42.3 °F /  5.7 °C 27.3 °F /  -2.6 °C 30.00 in /  1015.8 hPa WSW 5.7 mph /  9.2 km/h 9.0 mph /  14.5 km/h 55 % 0.00 in /  0 mm
12:04 42.4 °F /  5.8 °C 26.9 °F /  -2.8 °C 30.00 in /  1015.8 hPa SW 8.8 mph /  14.2 km/h 11.5 mph /  18.5 km/h 54 % 0.00 in /  0 mm
12:09 42.4 °F /  5.8 °C 27.4 °F /  -2.6 °C 30.00 in /  1015.8 hPa WSW 5.0 mph /  8 km/h 10.4 mph /  16.7 km/h 55 % 0.00 in /  0 mm
12:14 42.6 °F /  5.9 °C 27.1 °F /  -2.7 °C 30.00 in /  1015.8 hPa WSW 3.8 mph /  6.1 km/h 6.9 mph /  11.1 km/h 54 % 0.00 in /  0 mm
12:19 42.8 °F /  6 °C 27.3 °F /  -2.6 °C 30.00 in /  1015.8 hPa West 5.6 mph /  9 km/h 9.2 mph /  14.8 km/h 54 % 0.00 in /  0 mm
12:24 43.0 °F /  6.1 °C 26.6 °F /  -3 °C 29.99 in /  1015.5 hPa WNW 4.7 mph /  7.6 km/h 11.5 mph /  18.5 km/h 52 % 0.00 in /  0 mm
12:29 43.0 °F /  6.1 °C 26.1 °F /  -3.3 °C 29.99 in /  1015.5 hPa WSW 3.9 mph /  6.3 km/h 5.8 mph /  9.3 km/h 51 % 0.00 in /  0 mm
12:34 42.9 °F /  6.1 °C 26.0 °F /  -3.3 °C 29.99 in /  1015.5 hPa SW 6.3 mph /  10.1 km/h 11.5 mph /  18.5 km/h 51 % 0.00 in /  0 mm
12:39 42.9 °F /  6.1 °C 26.0 °F /  -3.3 °C 29.99 in /  1015.5 hPa West 3.5 mph /  5.6 km/h 5.8 mph /  9.3 km/h 51 % 0.00 in /  0 mm
12:44 42.9 °F /  6.1 °C 26.0 °F /  -3.3 °C 29.99 in /  1015.5 hPa WNW 2.0 mph /  3.2 km/h 4.0 mph /  6.4 km/h 51 % 0.00 in /  0 mm
12:49 42.7 °F /  5.9 °C 25.3 °F /  -3.7 °C 29.99 in /  1015.5 hPa WSW 2.5 mph /  4 km/h 4.0 mph /  6.4 km/h 50 % 0.00 in /  0 mm
12:54 42.7 °F /  5.9 °C 26.3 °F /  -3.2 °C 29.99 in /  1015.5 hPa SW 3.7 mph /  6 km/h 9.0 mph /  14.5 km/h 52 % 0.00 in /  0 mm
12:59 42.8 °F /  6 °C 25.4 °F /  -3.7 °C 29.99 in /  1015.5 hPa WSW 4.8 mph /  7.7 km/h 7.0 mph /  11.3 km/h 50 % 0.00 in /  0 mm
13:04 42.9 °F /  6.1 °C 25.5 °F /  -3.6 °C 29.99 in /  1015.5 hPa West 4.5 mph /  7.2 km/h 9.0 mph /  14.5 km/h 50 % 0.00 in /  0 mm
13:09 43.2 °F /  6.2 °C 24.8 °F /  -4 °C 29.99 in /  1015.5 hPa NW 4.1 mph /  6.6 km/h 9.0 mph /  14.5 km/h 48 % 0.00 in /  0 mm
13:14 43.5 °F /  6.4 °C 23.5 °F /  -4.7 °C 29.98 in /  1015.1 hPa SW 5.2 mph /  8.4 km/h 12.7 mph /  20.4 km/h 45 % 0.00 in /  0 mm
13:19 43.5 °F /  6.4 °C 24.1 °F /  -4.4 °C 29.98 in /  1015.1 hPa WSW 1.2 mph /  1.9 km/h 11.5 mph /  18.5 km/h 46 % 0.00 in /  0 mm
13:24 43.3 °F /  6.3 °C 23.4 °F /  -4.8 °C 29.98 in /  1015.1 hPa WSW 6.8 mph /  10.9 km/h 10.4 mph /  16.7 km/h 45 % 0.00 in /  0 mm
13:29 43.1 °F /  6.2 °C 24.2 °F /  -4.3 °C 29.98 in /  1015.1 hPa WNW 5.7 mph /  9.2 km/h 9.2 mph /  14.8 km/h 47 % 0.00 in /  0 mm
13:34 43.0 °F /  6.1 °C 24.6 °F /  -4.1 °C 29.98 in /  1015.1 hPa WNW 1.5 mph /  2.4 km/h 3.5 mph /  5.6 km/h 48 % 0.00 in /  0 mm
13:39 43.0 °F /  6.1 °C 24.1 °F /  -4.4 °C 29.98 in /  1015.1 hPa SW 6.5 mph /  10.5 km/h 9.2 mph /  14.8 km/h 47 % 0.00 in /  0 mm
13:44 43.0 °F /  6.1 °C 24.1 °F /  -4.4 °C 29.98 in /  1015.1 hPa WSW 3.7 mph /  6 km/h 7.0 mph /  11.3 km/h 47 % 0.00 in /  0 mm
13:49 43.0 °F /  6.1 °C 23.6 °F /  -4.7 °C 29.98 in /  1015.1 hPa WNW 4.5 mph /  7.2 km/h 11.5 mph /  18.5 km/h 46 % 0.00 in /  0 mm
13:54 43.0 °F /  6.1 °C 24.1 °F /  -4.4 °C 29.98 in /  1015.1 hPa WSW 4.6 mph /  7.4 km/h 9.0 mph /  14.5 km/h 47 % 0.00 in /  0 mm
13:59 43.2 °F /  6.2 °C 23.3 °F /  -4.8 °C 29.98 in /  1015.1 hPa WNW 3.5 mph /  5.6 km/h 8.1 mph /  13 km/h 45 % 0.00 in /  0 mm
14:05 43.6 °F /  6.4 °C 23.1 °F /  -4.9 °C 29.98 in /  1015.1 hPa West 9.2 mph /  14.8 km/h 11.5 mph /  18.5 km/h 44 % 0.00 in /  0 mm
14:10 44.0 °F /  6.7 °C 22.4 °F /  -5.3 °C 29.98 in /  1015.1 hPa West 7.5 mph /  12.1 km/h 11.5 mph /  18.5 km/h 42 % 0.00 in /  0 mm
14:15 44.2 °F /  6.8 °C 23.1 °F /  -4.9 °C 29.98 in /  1015.1 hPa West 5.4 mph /  8.7 km/h 12.0 mph /  19.3 km/h 43 % 0.00 in /  0 mm
14:20 44.4 °F /  6.9 °C 23.3 °F /  -4.8 °C 29.98 in /  1015.1 hPa West 4.8 mph /  7.7 km/h 10.4 mph /  16.7 km/h 43 % 0.00 in /  0 mm
14:25 44.5 °F /  6.9 °C 22.8 °F /  -5.1 °C 29.98 in /  1015.1 hPa SW 6.5 mph /  10.5 km/h 12.7 mph /  20.4 km/h 42 % 0.00 in /  0 mm
14:30 44.5 °F /  6.9 °C 22.2 °F /  -5.4 °C 29.98 in /  1015.1 hPa West 5.3 mph /  8.5 km/h 11.5 mph /  18.5 km/h 41 % 0.00 in /  0 mm
14:35 44.3 °F /  6.8 °C 22.1 °F /  -5.5 °C 29.99 in /  1015.5 hPa WNW 7.5 mph /  12.1 km/h 15.0 mph /  24.1 km/h 41 % 0.00 in /  0 mm
14:40 44.1 °F /  6.7 °C 22.4 °F /  -5.3 °C 29.99 in /  1015.5 hPa WNW 3.4 mph /  5.5 km/h 11.5 mph /  18.5 km/h 42 % 0.00 in /  0 mm
14:45 43.8 °F /  6.6 °C 23.3 °F /  -4.8 °C 29.99 in /  1015.5 hPa WNW 4.2 mph /  6.8 km/h 10.4 mph /  16.7 km/h 44 % 0.00 in /  0 mm
14:50 43.6 °F /  6.4 °C 23.1 °F /  -4.9 °C 29.99 in /  1015.5 hPa West 6.4 mph /  10.3 km/h 10.4 mph /  16.7 km/h 44 % 0.00 in /  0 mm
14:55 43.5 °F /  6.4 °C 23.0 °F /  -5 °C 29.99 in /  1015.5 hPa NW 6.3 mph /  10.1 km/h 9.2 mph /  14.8 km/h 44 % 0.00 in /  0 mm
15:00 43.2 °F /  6.2 °C 22.7 °F /  -5.2 °C 29.99 in /  1015.5 hPa West 4.2 mph /  6.8 km/h 8.1 mph /  13 km/h 44 % 0.00 in /  0 mm
15:05 43.1 °F /  6.2 °C 22.6 °F /  -5.2 °C 29.99 in /  1015.5 hPa WNW 2.9 mph /  4.7 km/h 5.8 mph /  9.3 km/h 44 % 0.00 in /  0 mm
15:10 43.1 °F /  6.2 °C 23.7 °F /  -4.6 °C 30.00 in /  1015.8 hPa WNW 4.9 mph /  7.9 km/h 9.2 mph /  14.8 km/h 46 % 0.00 in /  0 mm
15:15 43.1 °F /  6.2 °C 23.7 °F /  -4.6 °C 30.00 in /  1015.8 hPa WNW 6.4 mph /  10.3 km/h 15.0 mph /  24.1 km/h 46 % 0.00 in /  0 mm
15:20 43.1 °F /  6.2 °C 23.7 °F /  -4.6 °C 30.00 in /  1015.8 hPa NW 5.3 mph /  8.5 km/h 9.2 mph /  14.8 km/h 46 % 0.00 in /  0 mm
15:25 43.1 °F /  6.2 °C 23.7 °F /  -4.6 °C 30.00 in /  1015.8 hPa WNW 4.8 mph /  7.7 km/h 9.0 mph /  14.5 km/h 46 % 0.00 in /  0 mm
15:30 43.0 °F /  6.1 °C 23.6 °F /  -4.7 °C 30.01 in /  1016.1 hPa WNW 5.9 mph /  9.5 km/h 5.9 mph /  9.5 km/h 46 % 0.00 in /  0 mm
15:35 42.9 °F /  6.1 °C 23.5 °F /  -4.7 °C 30.00 in /  1015.8 hPa WSW 3.4 mph /  5.5 km/h 8.1 mph /  13 km/h 46 % 0.00 in /  0 mm
15:40 42.7 °F /  5.9 °C 23.3 °F /  -4.8 °C 30.01 in /  1016.1 hPa West 6.8 mph /  10.9 km/h 12.7 mph /  20.4 km/h 46 % 0.00 in /  0 mm
15:45 42.5 °F /  5.8 °C 23.7 °F /  -4.6 °C 30.01 in /  1016.1 hPa NNW 7.5 mph /  12.1 km/h 12.0 mph /  19.3 km/h 47 % 0.00 in /  0 mm
15:50 42.2 °F /  5.7 °C 23.9 °F /  -4.5 °C 30.01 in /  1016.1 hPa NW 10.2 mph /  16.4 km/h 11.5 mph /  18.5 km/h 48 % 0.00 in /  0 mm
15:55 42.1 °F /  5.6 °C 24.8 °F /  -4 °C 30.02 in /  1016.5 hPa West 6.1 mph /  9.8 km/h 12.7 mph /  20.4 km/h 50 % 0.00 in /  0 mm
16:00 42.0 °F /  5.6 °C 26.1 °F /  -3.3 °C 30.02 in /  1016.5 hPa SW 2.2 mph /  3.5 km/h 5.0 mph /  8 km/h 53 % 0.00 in /  0 mm
16:05 42.0 °F /  5.6 °C 25.6 °F /  -3.6 °C 30.02 in /  1016.5 hPa WNW 4.7 mph /  7.6 km/h 11.0 mph /  17.7 km/h 52 % 0.00 in /  0 mm
16:11 41.8 °F /  5.4 °C 25.9 °F /  -3.4 °C 30.02 in /  1016.5 hPa WSW 7.4 mph /  11.9 km/h 11.5 mph /  18.5 km/h 53 % 0.00 in /  0 mm
16:16 41.7 °F /  5.4 °C 25.8 °F /  -3.4 °C 30.03 in /  1016.8 hPa WNW 7.3 mph /  11.7 km/h 11.5 mph /  18.5 km/h 53 % 0.00 in /  0 mm
16:21 41.5 °F /  5.3 °C 27.4 °F /  -2.6 °C 30.03 in /  1016.8 hPa NNW 7.4 mph /  11.9 km/h 11.5 mph /  18.5 km/h 57 % 0.00 in /  0 mm
16:26 41.2 °F /  5.1 °C 27.1 °F /  -2.7 °C 30.03 in /  1016.8 hPa NW 9.1 mph /  14.6 km/h 16.1 mph /  25.9 km/h 57 % 0.00 in /  0 mm
16:31 41.0 °F /  5 °C 27.3 °F /  -2.6 °C 30.03 in /  1016.8 hPa NW 5.8 mph /  9.3 km/h 11.5 mph /  18.5 km/h 58 % 0.00 in /  0 mm
16:36 40.7 °F /  4.8 °C 27.1 °F /  -2.7 °C 30.03 in /  1016.8 hPa WNW 3.0 mph /  4.8 km/h 5.8 mph /  9.3 km/h 58 % 0.00 in /  0 mm
16:41 40.4 °F /  4.7 °C 25.5 °F /  -3.6 °C 30.04 in /  1017.2 hPa WNW 6.4 mph /  10.3 km/h 11.5 mph /  18.5 km/h 55 % 0.00 in /  0 mm
16:46 40.1 °F /  4.5 °C 24.8 °F /  -4 °C 30.04 in /  1017.2 hPa WNW 7.8 mph /  12.6 km/h 12.7 mph /  20.4 km/h 54 % 0.00 in /  0 mm
16:51 39.7 °F /  4.3 °C 24.4 °F /  -4.2 °C 30.04 in /  1017.2 hPa WNW 7.4 mph /  11.9 km/h 15.0 mph /  24.1 km/h 54 % 0.00 in /  0 mm
16:53 39.6 °F /  4.2 °C 24.7 °F /  -4.1 °C 30.04 in /  1017.2 hPa WNW 2.4 mph /  3.9 km/h 6.9 mph /  11.1 km/h 55 % 0.00 in /  0 mm
16:58 39.4 °F /  4.1 °C 24.1 °F /  -4.4 °C 30.05 in /  1017.5 hPa WNW 5.9 mph /  9.5 km/h 10.0 mph /  16.1 km/h 54 % 0.00 in /  0 mm
17:03 39.3 °F /  4.1 °C 24.0 °F /  -4.4 °C 30.05 in /  1017.5 hPa WNW 3.5 mph /  5.6 km/h 8.1 mph /  13 km/h 54 % 0.00 in /  0 mm
17:08 39.2 °F /  4 °C 23.9 °F /  -4.5 °C 30.05 in /  1017.5 hPa WNW 2.9 mph /  4.7 km/h 6.9 mph /  11.1 km/h 54 % 0.00 in /  0 mm
17:13 39.1 °F /  3.9 °C 23.8 °F /  -4.6 °C 30.06 in /  1017.8 hPa West 3.8 mph /  6.1 km/h 8.1 mph /  13 km/h 54 % 0.00 in /  0 mm
17:18 39.0 °F /  3.9 °C 24.2 °F /  -4.3 °C 30.06 in /  1017.8 hPa WNW 2.7 mph /  4.3 km/h 6.9 mph /  11.1 km/h 55 % 0.00 in /  0 mm
17:23 38.9 °F /  3.8 °C 24.5 °F /  -4.2 °C 30.06 in /  1017.8 hPa NNW 5.1 mph /  8.2 km/h 9.2 mph /  14.8 km/h 56 % 0.00 in /  0 mm
17:28 38.7 °F /  3.7 °C 23.9 °F /  -4.5 °C 30.06 in /  1017.8 hPa NW 4.4 mph /  7.1 km/h 11.5 mph /  18.5 km/h 55 % 0.00 in /  0 mm
17:33 38.6 °F /  3.7 °C 24.2 °F /  -4.3 °C 30.06 in /  1017.8 hPa WNW 5.0 mph /  8 km/h 7.0 mph /  11.3 km/h 56 % 0.00 in /  0 mm
17:38 38.6 °F /  3.7 °C 24.7 °F /  -4.1 °C 30.06 in /  1017.8 hPa West 3.0 mph /  4.8 km/h 8.0 mph /  12.9 km/h 57 % 0.00 in /  0 mm
17:43 38.4 °F /  3.6 °C 24.1 °F /  -4.4 °C 30.06 in /  1017.8 hPa West 4.2 mph /  6.8 km/h 10.4 mph /  16.7 km/h 56 % 0.00 in /  0 mm
17:48 38.4 °F /  3.6 °C 24.1 °F /  -4.4 °C 30.06 in /  1017.8 hPa WNW 6.2 mph /  10 km/h 11.0 mph /  17.7 km/h 56 % 0.00 in /  0 mm
17:53 38.4 °F /  3.6 °C 23.6 °F /  -4.7 °C 30.06 in /  1017.8 hPa West 6.4 mph /  10.3 km/h 10.4 mph /  16.7 km/h 55 % 0.00 in /  0 mm
17:58 38.3 °F /  3.5 °C 23.5 °F /  -4.7 °C 30.06 in /  1017.8 hPa NW 3.3 mph /  5.3 km/h 5.8 mph /  9.3 km/h 55 % 0.00 in /  0 mm
18:03 38.3 °F /  3.5 °C 23.5 °F /  -4.7 °C 30.06 in /  1017.8 hPa WSW 3.8 mph /  6.1 km/h 8.1 mph /  13 km/h 55 % 0.00 in /  0 mm
18:08 38.3 °F /  3.5 °C 23.5 °F /  -4.7 °C 30.07 in /  1018.2 hPa NW 6.0 mph /  9.7 km/h 11.5 mph /  18.5 km/h 55 % 0.00 in /  0 mm
18:13 38.3 °F /  3.5 °C 23.5 °F /  -4.7 °C 30.07 in /  1018.2 hPa West 6.0 mph /  9.7 km/h 13.0 mph /  20.9 km/h 55 % 0.00 in /  0 mm
18:18 38.3 °F /  3.5 °C 23.5 °F /  -4.7 °C 30.07 in /  1018.2 hPa WNW 3.0 mph /  4.8 km/h 8.0 mph /  12.9 km/h 55 % 0.00 in /  0 mm
18:23 38.2 °F /  3.4 °C 23.0 °F /  -5 °C 30.07 in /  1018.2 hPa WNW 6.0 mph /  9.7 km/h 9.0 mph /  14.5 km/h 54 % 0.00 in /  0 mm
18:28 38.2 °F /  3.4 °C 23.4 °F /  -4.8 °C 30.07 in /  1018.2 hPa West 3.0 mph /  4.8 km/h 12.0 mph /  19.3 km/h 55 % 0.00 in /  0 mm
18:33 38.1 °F /  3.4 °C 23.8 °F /  -4.6 °C 30.08 in /  1018.5 hPa WSW 3.7 mph /  6 km/h 4.6 mph /  7.4 km/h 56 % 0.00 in /  0 mm
18:38 38.1 °F /  3.4 °C 23.8 °F /  -4.6 °C 30.08 in /  1018.5 hPa West 3.0 mph /  4.8 km/h 12.0 mph /  19.3 km/h 56 % 0.00 in /  0 mm
18:43 37.9 °F /  3.3 °C 23.6 °F /  -4.7 °C 30.08 in /  1018.5 hPa West 3.0 mph /  4.8 km/h 10.0 mph /  16.1 km/h 56 % 0.00 in /  0 mm
18:48 37.9 °F /  3.3 °C 23.6 °F /  -4.7 °C 30.08 in /  1018.5 hPa West 6.0 mph /  9.7 km/h 13.0 mph /  20.9 km/h 56 % 0.00 in /  0 mm
18:53 37.8 °F /  3.2 °C 24.3 °F /  -4.3 °C 30.09 in /  1018.8 hPa WNW 2.7 mph /  4.3 km/h 4.0 mph /  6.4 km/h 58 % 0.00 in /  0 mm
18:58 37.7 °F /  3.2 °C 24.6 °F /  -4.1 °C 30.09 in /  1018.8 hPa NW 3.2 mph /  5.1 km/h 6.9 mph /  11.1 km/h 59 % 0.00 in /  0 mm
19:04 37.6 °F /  3.1 °C 23.7 °F /  -4.6 °C 30.09 in /  1018.8 hPa WSW 7.2 mph /  11.6 km/h 17.3 mph /  27.8 km/h 57 % 0.00 in /  0 mm
19:09 37.5 °F /  3.1 °C 22.8 °F /  -5.1 °C 30.09 in /  1018.8 hPa WNW 3.2 mph /  5.1 km/h 9.2 mph /  14.8 km/h 55 % 0.00 in /  0 mm
19:14 37.4 °F /  3 °C 22.7 °F /  -5.2 °C 30.09 in /  1018.8 hPa WNW 6.3 mph /  10.1 km/h 13.8 mph /  22.2 km/h 55 % 0.00 in /  0 mm
19:19 37.3 °F /  2.9 °C 22.6 °F /  -5.2 °C 30.10 in /  1019.2 hPa WSW 3.9 mph /  6.3 km/h 10.4 mph /  16.7 km/h 55 % 0.00 in /  0 mm
19:24 37.2 °F /  2.9 °C 22.5 °F /  -5.3 °C 30.09 in /  1018.8 hPa West 4.3 mph /  6.9 km/h 10.4 mph /  16.7 km/h 55 % 0.00 in /  0 mm
19:29 37.1 °F /  2.8 °C 22.4 °F /  -5.3 °C 30.10 in /  1019.2 hPa WNW 4.3 mph /  6.9 km/h 10.0 mph /  16.1 km/h 55 % 0.00 in /  0 mm
19:34 37.1 °F /  2.8 °C 22.8 °F /  -5.1 °C 30.10 in /  1019.2 hPa WNW 2.5 mph /  4 km/h 5.8 mph /  9.3 km/h 56 % 0.00 in /  0 mm
19:39 37.0 °F /  2.8 °C 21.9 °F /  -5.6 °C 30.11 in /  1019.5 hPa WNW 5.5 mph /  8.9 km/h 10.4 mph /  16.7 km/h 54 % 0.00 in /  0 mm
19:44 36.9 °F /  2.7 °C 21.8 °F /  -5.7 °C 30.11 in /  1019.5 hPa West 6.3 mph /  10.1 km/h 11.5 mph /  18.5 km/h 54 % 0.00 in /  0 mm
19:49 36.9 °F /  2.7 °C 21.8 °F /  -5.7 °C 30.11 in /  1019.5 hPa NW 1.9 mph /  3.1 km/h 8.1 mph /  13 km/h 54 % 0.00 in /  0 mm
19:54 36.8 °F /  2.7 °C 21.7 °F /  -5.7 °C 30.11 in /  1019.5 hPa WNW 5.8 mph /  9.3 km/h 12.7 mph /  20.4 km/h 54 % 0.00 in /  0 mm
19:59 36.8 °F /  2.7 °C 22.6 °F /  -5.2 °C 30.11 in /  1019.5 hPa WNW 6.7 mph /  10.8 km/h 11.5 mph /  18.5 km/h 56 % 0.00 in /  0 mm
20:04 36.7 °F /  2.6 °C 22.5 °F /  -5.3 °C 30.12 in /  1019.9 hPa NW 5.1 mph /  8.2 km/h 8.1 mph /  13 km/h 56 % 0.00 in /  0 mm
20:09 36.6 °F /  2.6 °C 23.6 °F /  -4.7 °C 30.12 in /  1019.9 hPa NNW 5.1 mph /  8.2 km/h 10.4 mph /  16.7 km/h 59 % 0.00 in /  0 mm
20:14 36.4 °F /  2.4 °C 24.2 °F /  -4.3 °C 30.12 in /  1019.9 hPa NNW 5.6 mph /  9 km/h 10.4 mph /  16.7 km/h 61 % 0.00 in /  0 mm
20:19 36.2 °F /  2.3 °C 23.6 °F /  -4.7 °C 30.12 in /  1019.9 hPa NNW 3.5 mph /  5.6 km/h 6.9 mph /  11.1 km/h 60 % 0.00 in /  0 mm
20:24 36.1 °F /  2.3 °C 23.5 °F /  -4.7 °C 30.12 in /  1019.9 hPa NW 5.6 mph /  9 km/h 11.5 mph /  18.5 km/h 60 % 0.00 in /  0 mm
20:29 35.8 °F /  2.1 °C 23.3 °F /  -4.8 °C 30.12 in /  1019.9 hPa North 5.2 mph /  8.4 km/h 7.0 mph /  11.3 km/h 60 % 0.00 in /  0 mm
20:34 35.6 °F /  2 °C 23.5 °F /  -4.7 °C 30.13 in /  1020.2 hPa WNW 6.5 mph /  10.5 km/h 12.0 mph /  19.3 km/h 61 % 0.00 in /  0 mm
20:39 35.5 °F /  1.9 °C 23.4 °F /  -4.8 °C 30.13 in /  1020.2 hPa NNW 5.7 mph /  9.2 km/h 10.4 mph /  16.7 km/h 61 % 0.00 in /  0 mm
20:44 35.3 °F /  1.8 °C 23.2 °F /  -4.9 °C 30.13 in /  1020.2 hPa NNW 6.2 mph /  10 km/h 8.0 mph /  12.9 km/h 61 % 0.00 in /  0 mm
20:49 35.2 °F /  1.8 °C 23.1 °F /  -4.9 °C 30.14 in /  1020.5 hPa WNW 2.8 mph /  4.5 km/h 6.9 mph /  11.1 km/h 61 % 0.00 in /  0 mm
20:54 35.0 °F /  1.7 °C 22.9 °F /  -5.1 °C 30.14 in /  1020.5 hPa NW 6.2 mph /  10 km/h 6.2 mph /  10 km/h 61 % 0.00 in /  0 mm
20:59 34.9 °F /  1.6 °C 22.4 °F /  -5.3 °C 30.14 in /  1020.5 hPa North 4.2 mph /  6.8 km/h 9.2 mph /  14.8 km/h 60 % 0.00 in /  0 mm
21:04 34.7 °F /  1.5 °C 22.2 °F /  -5.4 °C 30.14 in /  1020.5 hPa NW 3.7 mph /  6 km/h 11.5 mph /  18.5 km/h 60 % 0.00 in /  0 mm
21:10 34.6 °F /  1.4 °C 22.5 °F /  -5.3 °C 30.14 in /  1020.5 hPa WNW 4.5 mph /  7.2 km/h 10.4 mph /  16.7 km/h 61 % 0.00 in /  0 mm
21:15 34.5 °F /  1.4 °C 22.4 °F /  -5.3 °C 30.14 in /  1020.5 hPa North 4.8 mph /  7.7 km/h 12.0 mph /  19.3 km/h 61 % 0.00 in /  0 mm
21:20 34.3 °F /  1.3 °C 21.8 °F /  -5.7 °C 30.15 in /  1020.9 hPa North 5.7 mph /  9.2 km/h 11.5 mph /  18.5 km/h 60 % 0.00 in /  0 mm
21:25 34.2 °F /  1.2 °C 21.7 °F /  -5.7 °C 30.15 in /  1020.9 hPa NNW 4.7 mph /  7.6 km/h 10.0 mph /  16.1 km/h 60 % 0.00 in /  0 mm
21:30 34.0 °F /  1.1 °C 21.6 °F /  -5.8 °C 30.15 in /  1020.9 hPa WNW 3.9 mph /  6.3 km/h 9.2 mph /  14.8 km/h 60 % 0.00 in /  0 mm
21:35 33.9 °F /  1.1 °C 21.5 °F /  -5.8 °C 30.15 in /  1020.9 hPa North 3.8 mph /  6.1 km/h 6.9 mph /  11.1 km/h 60 % 0.00 in /  0 mm
21:40 33.8 °F /  1 °C 21.4 °F /  -5.9 °C 30.15 in /  1020.9 hPa NNW 3.9 mph /  6.3 km/h 6.9 mph /  11.1 km/h 60 % 0.00 in /  0 mm
21:45 33.7 °F /  0.9 °C 20.9 °F /  -6.2 °C 30.15 in /  1020.9 hPa NW 2.4 mph /  3.9 km/h 5.8 mph /  9.3 km/h 59 % 0.00 in /  0 mm
21:50 33.7 °F /  0.9 °C 21.3 °F /  -5.9 °C 30.15 in /  1020.9 hPa NNW 2.8 mph /  4.5 km/h 10.4 mph /  16.7 km/h 60 % 0.00 in /  0 mm
21:55 33.5 °F /  0.8 °C 21.1 °F /  -6.1 °C 30.15 in /  1020.9 hPa NW 3.7 mph /  6 km/h 11.5 mph /  18.5 km/h 60 % 0.00 in /  0 mm
22:00 33.5 °F /  0.8 °C 21.1 °F /  -6.1 °C 30.15 in /  1020.9 hPa NW 3.9 mph /  6.3 km/h 4.6 mph /  7.4 km/h 60 % 0.00 in /  0 mm
22:05 33.4 °F /  0.8 °C 21.0 °F /  -6.1 °C 30.16 in /  1021.2 hPa NNW 5.0 mph /  8 km/h 10.4 mph /  16.7 km/h 60 % 0.00 in /  0 mm
22:10 33.4 °F /  0.8 °C 21.0 °F /  -6.1 °C 30.15 in /  1020.9 hPa NNW 4.8 mph /  7.7 km/h 8.1 mph /  13 km/h 60 % 0.00 in /  0 mm
22:15 33.3 °F /  0.7 °C 20.9 °F /  -6.2 °C 30.15 in /  1020.9 hPa WNW 4.5 mph /  7.2 km/h 9.2 mph /  14.8 km/h 60 % 0.00 in /  0 mm
22:20 33.2 °F /  0.7 °C 20.4 °F /  -6.4 °C 30.15 in /  1020.9 hPa NW 4.6 mph /  7.4 km/h 8.1 mph /  13 km/h 59 % 0.00 in /  0 mm
22:25 33.2 °F /  0.7 °C 20.8 °F /  -6.2 °C 30.15 in /  1020.9 hPa North 4.4 mph /  7.1 km/h 6.9 mph /  11.1 km/h 60 % 0.00 in /  0 mm
22:30 33.1 °F /  0.6 °C 21.1 °F /  -6.1 °C 30.15 in /  1020.9 hPa NW 1.6 mph /  2.6 km/h 6.0 mph /  9.7 km/h 61 % 0.00 in /  0 mm
22:35 33.0 °F /  0.6 °C 21.0 °F /  -6.1 °C 30.15 in /  1020.9 hPa WNW 4.5 mph /  7.2 km/h 8.0 mph /  12.9 km/h 61 % 0.00 in /  0 mm
22:40 32.9 °F /  0.5 °C 20.5 °F /  -6.4 °C 30.15 in /  1020.9 hPa NW 2.2 mph /  3.5 km/h 9.2 mph /  14.8 km/h 60 % 0.00 in /  0 mm
22:45 32.8 °F /  0.4 °C 20.4 °F /  -6.4 °C 30.15 in /  1020.9 hPa North 3.9 mph /  6.3 km/h 6.9 mph /  11.1 km/h 60 % 0.00 in /  0 mm
22:50 32.8 °F /  0.4 °C 20.4 °F /  -6.4 °C 30.16 in /  1021.2 hPa WNW 4.6 mph /  7.4 km/h 10.0 mph /  16.1 km/h 60 % 0.00 in /  0 mm
22:55 32.8 °F /  0.4 °C 20.4 °F /  -6.4 °C 30.16 in /  1021.2 hPa West 4.9 mph /  7.9 km/h 11.5 mph /  18.5 km/h 60 % 0.00 in /  0 mm
23:00 32.8 °F /  0.4 °C 20.0 °F /  -6.7 °C 30.16 in /  1021.2 hPa WNW 4.7 mph /  7.6 km/h 7.0 mph /  11.3 km/h 59 % 0.00 in /  0 mm
23:06 32.7 °F /  0.4 °C 19.9 °F /  -6.7 °C 30.16 in /  1021.2 hPa WNW 4.9 mph /  7.9 km/h 9.2 mph /  14.8 km/h 59 % 0.00 in /  0 mm
23:11 32.6 °F /  0.3 °C 19.4 °F /  -7 °C 30.16 in /  1021.2 hPa WNW 5.8 mph /  9.3 km/h 11.5 mph /  18.5 km/h 58 % 0.00 in /  0 mm
23:16 32.6 °F /  0.3 °C 19.4 °F /  -7 °C 30.16 in /  1021.2 hPa WNW 2.4 mph /  3.9 km/h 5.0 mph /  8 km/h 58 % 0.00 in /  0 mm
23:21 32.5 °F /  0.3 °C 19.3 °F /  -7.1 °C 30.16 in /  1021.2 hPa WNW 1.6 mph /  2.6 km/h 4.6 mph /  7.4 km/h 58 % 0.00 in /  0 mm
23:26 32.4 °F /  0.2 °C 19.3 °F /  -7.1 °C 30.16 in /  1021.2 hPa West 4.8 mph /  7.7 km/h 11.5 mph /  18.5 km/h 58 % 0.00 in /  0 mm
23:31 32.3 °F /  0.2 °C 19.2 °F /  -7.1 °C 30.16 in /  1021.2 hPa West 5.6 mph /  9 km/h 8.1 mph /  13 km/h 58 % 0.00 in /  0 mm
23:36 32.3 °F /  0.2 °C 19.2 °F /  -7.1 °C 30.16 in /  1021.2 hPa NW 3.3 mph /  5.3 km/h 8.1 mph /  13 km/h 58 % 0.00 in /  0 mm
23:41 32.2 °F /  0.1 °C 19.1 °F /  -7.2 °C 30.16 in /  1021.2 hPa WNW 2.6 mph /  4.2 km/h 6.9 mph /  11.1 km/h 58 % 0.00 in /  0 mm
23:46 32.1 °F /  0.1 °C 19.0 °F /  -7.2 °C 30.16 in /  1021.2 hPa WNW 5.7 mph /  9.2 km/h 11.0 mph /  17.7 km/h 58 % 0.00 in /  0 mm
23:51 32.1 °F /  0.1 °C 19.0 °F /  -7.2 °C 30.16 in /  1021.2 hPa NNW 2.2 mph /  3.5 km/h 4.6 mph /  7.4 km/h 58 % 0.00 in /  0 mm
23:56 32.1 °F /  0.1 °C 19.4 °F /  -7 °C 30.16 in /  1021.2 hPa NNW 2.6 mph /  4.2 km/h 8.0 mph /  12.9 km/h 59 % 0.00 in /  0 mm
Crab Meadow Weather
Compliments of Weather Underground - 3 mb

Script developed by  Jim McMurry - jmcmurry@mwt.net Adapted for the template by  Wim van der Kuil - Leuven-Template.eu

Extremes: By average annual rainfall, the wettest place in the world is Mawslynram, in Meghalaya State, India with 467 1/2 inches per annum.